Terminal Aerodrome Forecast
Issued by NWS Portland, OR

Home | Current Version | Previous Version | Text Only | Print | Product List | Glossary On
Versions: 1 2 3 4 5 6 7 8 9 10 11 12 13 14 15 16 17 18 19 20 21 22 23 24 25 26 27 28 29 30 31 32 33 34 35 36 37 38
000
FTUS46 KPQR 260544
TAFHIO
TAF
KHIO 260544Z 2606/2706 19007KT P6SM BKN060
     FM260800 19004KT P6SM OVC012
     FM261500 18003KT 1SM BR OVC003
     FM261800 18006KT 4SM BR OVC007
     FM262200 18006KT P6SM BKN150=

USA.gov is the U.S. government's official web portal to all federal, state and local government web resources and services.